createdAt,value
2018-04-11T05:41:11.042Z,51.50
2018-04-11T05:43:37.998Z,54.40
2018-04-11T05:46:04.804Z,51.90
2018-04-11T05:48:31.761Z,50.40
2018-04-11T05:50:58.635Z,48.80
2018-04-11T05:53:25.418Z,47.80
2018-04-11T05:55:53.009Z,47.00
2018-04-11T05:58:19.999Z,46.60
2018-04-11T06:00:46.879Z,46.90
2018-04-11T06:03:13.816Z,46.30
2018-04-11T06:05:40.654Z,46.40
2018-04-11T06:08:07.454Z,46.00
2018-04-11T06:10:34.448Z,46.20
2018-04-11T06:13:01.226Z,46.30
2018-04-11T06:15:28.961Z,45.70
2018-04-11T06:17:55.811Z,46.00
2018-04-11T06:20:22.654Z,45.40
2018-04-11T06:22:49.361Z,45.40
2018-04-11T06:25:16.166Z,45.40
2018-04-11T06:27:43.001Z,45.60
2018-04-11T06:30:09.769Z,45.80
2018-04-11T06:32:36.816Z,45.90
2018-04-11T06:35:03.784Z,46.40
2018-04-11T06:37:30.620Z,45.90
2018-04-11T06:39:58.155Z,45.80
2018-04-11T06:42:24.944Z,45.70
2018-04-11T06:44:52.469Z,46.10
2018-04-11T06:47:19.363Z,45.90
2018-04-11T06:49:46.370Z,46.00
2018-04-11T06:52:13.212Z,46.00
2018-04-11T06:54:39.995Z,46.20
2018-04-11T06:57:07.527Z,46.10
2018-04-11T06:59:34.479Z,46.20
2018-04-11T07:02:01.329Z,46.20
2018-04-11T07:04:28.169Z,46.40
2018-04-11T07:06:55.017Z,46.30
2018-04-11T07:09:21.801Z,46.20
2018-04-11T07:11:48.534Z,46.20
2018-04-11T07:14:15.455Z,46.20
2018-04-11T07:16:42.314Z,46.40
2018-04-11T07:19:09.103Z,46.50
2018-04-11T07:21:36.560Z,46.40
2018-04-11T07:24:04.176Z,46.30
2018-04-11T07:26:31.127Z,46.30
2018-04-11T07:28:57.984Z,46.30
2018-04-11T07:31:24.884Z,46.20
2018-04-11T07:33:51.784Z,46.30
2018-04-11T07:36:18.733Z,46.40
2018-04-11T07:38:45.570Z,46.10
2018-04-11T07:41:12.436Z,46.30
2018-04-11T07:43:39.385Z,46.10
2018-04-11T07:46:06.414Z,46.40
2018-04-11T07:48:33.236Z,46.30
2018-04-11T07:51:00.102Z,46.10
2018-04-11T07:53:26.899Z,46.50
2018-04-11T07:55:54.462Z,46.50
2018-04-11T07:58:21.376Z,46.00
2018-04-11T08:00:48.234Z,46.70
2018-04-11T08:03:15.840Z,46.10
2018-04-11T08:05:42.595Z,46.20
2018-04-11T08:08:10.239Z,46.60
2018-04-11T08:10:37.058Z,46.10
2018-04-11T08:13:03.924Z,46.70
2018-04-11T08:15:30.788Z,46.70
2018-04-11T08:17:58.433Z,47.00
2018-04-11T08:20:25.334Z,47.00
2018-04-11T08:22:52.114Z,47.20
2018-04-11T08:25:18.999Z,46.90
2018-04-11T08:27:45.806Z,47.30
2018-04-11T08:30:12.664Z,46.90
2018-04-11T08:32:39.616Z,46.90
2018-04-11T08:35:06.573Z,46.80
2018-04-11T08:37:33.447Z,47.00
2018-04-11T08:40:00.985Z,46.90
2018-04-11T08:42:27.823Z,46.90
2018-04-11T08:44:54.707Z,46.60
2018-04-11T08:47:22.275Z,47.20
2018-04-11T08:49:49.287Z,46.90
2018-04-11T08:52:16.139Z,46.80
2018-04-11T08:54:43.191Z,46.60
2018-04-11T08:57:10.139Z,46.50
2018-04-11T08:59:36.987Z,46.60
2018-04-11T09:02:03.848Z,46.60
2018-04-11T09:04:30.688Z,49.00
2018-04-11T09:06:57.562Z,49.60
2018-04-11T09:09:24.391Z,49.10
2018-04-11T09:11:51.455Z,48.00
2018-04-11T09:14:18.319Z,48.20
2018-04-11T09:16:45.766Z,48.30
2018-04-11T09:19:12.627Z,48.10
2018-04-11T09:21:40.158Z,48.10
2018-04-11T09:24:07.026Z,48.00
2018-04-11T09:26:33.952Z,48.00
2018-04-11T09:29:00.802Z,48.00
2018-04-11T09:31:27.572Z,47.90
2018-04-11T09:33:54.500Z,48.00
2018-04-11T09:36:22.571Z,47.60
2018-04-11T09:38:49.547Z,47.80
2018-04-11T09:41:16.470Z,47.90
2018-04-11T09:43:43.320Z,47.80
2018-04-11T09:46:10.271Z,48.00
2018-04-11T09:48:37.137Z,48.10
2018-04-11T09:51:05.539Z,49.30
2018-04-11T09:53:32.299Z,49.60
2018-04-11T09:56:00.023Z,52.20
2018-04-11T09:58:26.818Z,51.60
2018-04-11T10:00:53.669Z,51.50
2018-04-11T10:03:22.561Z,50.60
2018-04-11T10:05:49.700Z,50.30
2018-04-11T10:08:17.261Z,49.20
2018-04-11T10:10:44.100Z,49.90
2018-04-11T10:13:11.746Z,49.20
2018-04-11T10:15:38.493Z,48.90
2018-04-11T10:18:05.233Z,49.30
2018-04-11T10:20:32.524Z,49.00
2018-04-11T10:22:59.386Z,49.10
2018-04-11T10:25:27.000Z,49.10
2018-04-11T10:27:54.061Z,49.40
2018-04-11T10:30:20.726Z,49.80
2018-04-11T10:32:47.653Z,49.40
2018-04-11T10:35:14.574Z,49.90
2018-04-11T10:37:41.453Z,49.70
2018-04-11T10:40:08.335Z,49.00
2018-04-11T10:42:35.972Z,49.50
2018-04-11T10:45:02.811Z,49.40
2018-04-11T10:47:29.589Z,49.50
2018-04-11T10:49:56.524Z,49.30
2018-04-11T10:52:23.462Z,48.60
2018-04-11T10:54:50.310Z,49.90
2018-04-11T10:57:17.160Z,48.70
2018-04-11T10:59:43.995Z,48.80
2018-04-11T11:02:10.807Z,48.80
2018-04-11T11:04:37.807Z,49.00
2018-04-11T11:07:04.655Z,48.80
2018-04-11T11:09:31.527Z,48.60
2018-04-11T11:11:58.451Z,48.80
2018-04-11T11:14:25.312Z,49.50
2018-04-11T11:16:52.087Z,49.00
2018-04-11T11:19:19.711Z,48.30
2018-04-11T11:21:46.571Z,48.30
2018-04-11T11:24:13.404Z,48.70
2018-04-11T11:26:41.316Z,48.60
2018-04-11T11:29:08.942Z,48.50
2018-04-11T11:31:35.785Z,48.60
2018-04-11T11:34:02.864Z,48.40
2018-04-11T11:36:29.676Z,48.30
2018-04-11T11:38:57.271Z,48.40
2018-04-11T11:41:24.069Z,48.20
2018-04-11T11:46:18.858Z,47.80
2018-04-11T11:48:46.386Z,48.00
2018-04-11T11:51:13.342Z,48.00
2018-04-11T11:53:40.403Z,48.00
2018-04-11T11:56:07.242Z,47.90
2018-04-11T11:58:34.114Z,48.00
2018-04-11T12:01:01.042Z,48.10
2018-04-11T12:03:27.915Z,48.10
2018-04-11T12:05:54.835Z,47.30
2018-04-11T12:08:21.790Z,47.60
2018-04-11T12:10:48.581Z,46.90
2018-04-11T12:13:16.156Z,45.00
2018-04-11T12:15:43.152Z,45.00
2018-04-11T12:18:09.997Z,44.60
2018-04-11T12:20:36.770Z,43.70
2018-04-11T12:23:03.701Z,43.30
2018-04-11T12:25:30.498Z,43.50
2018-04-11T12:27:57.284Z,42.10
2018-04-11T12:30:23.963Z,41.50
2018-04-11T12:32:50.908Z,41.80
2018-04-11T12:35:17.933Z,41.80
2018-04-11T12:37:44.702Z,42.00
2018-04-11T12:40:11.530Z,41.40
2018-04-11T12:42:38.373Z,41.60
2018-04-11T12:45:06.143Z,41.70
2018-04-11T12:47:32.996Z,41.90
2018-04-11T12:49:59.840Z,42.10
2018-04-11T12:52:26.796Z,42.40
2018-04-11T12:54:53.687Z,42.70
2018-04-11T12:57:21.240Z,42.90
2018-04-11T12:59:48.087Z,42.70
2018-04-11T13:02:15.204Z,42.70
2018-04-11T13:04:41.988Z,42.80
2018-04-11T13:07:09.745Z,43.30
2018-04-11T13:09:36.678Z,43.20
2018-04-11T13:12:03.476Z,43.40
2018-04-11T13:14:30.227Z,43.30
2018-04-11T13:16:57.032Z,43.40
2018-04-11T13:19:23.960Z,43.50
2018-04-11T13:21:50.718Z,43.50
2018-04-11T13:24:17.764Z,43.80
2018-04-11T13:26:44.474Z,43.80
2018-04-11T13:29:11.274Z,43.90
2018-04-11T13:31:38.343Z,43.90
2018-04-11T13:34:05.223Z,44.00
2018-04-11T13:36:32.043Z,44.00
2018-04-11T13:38:59.618Z,44.20
2018-04-11T13:41:26.827Z,44.10
2018-04-11T13:43:53.636Z,44.00
2018-04-11T13:46:20.483Z,44.30
2018-04-11T13:48:47.306Z,44.30
2018-04-11T13:51:14.941Z,44.60
2018-04-11T13:53:41.740Z,44.50
2018-04-11T13:56:08.735Z,44.60
2018-04-11T13:58:35.581Z,44.90
2018-04-11T14:01:02.435Z,44.90
2018-04-11T14:03:29.301Z,45.00
2018-04-11T14:05:56.228Z,45.50
2018-04-11T14:08:23.054Z,45.50
2018-04-11T14:10:50.479Z,45.60
2018-04-11T14:13:19.032Z,45.90
2018-04-11T14:15:45.900Z,45.80
2018-04-11T14:18:12.665Z,45.90
2018-04-11T14:20:39.678Z,45.70
2018-04-11T14:23:06.525Z,45.90
2018-04-11T14:25:33.424Z,45.90
2018-04-11T14:28:00.163Z,45.80
2018-04-11T14:30:26.987Z,46.00
2018-04-11T14:32:54.026Z,45.90
2018-04-11T14:35:20.787Z,45.90
2018-04-11T14:37:47.655Z,45.50
2018-04-11T14:40:15.287Z,45.60
2018-04-11T14:42:42.236Z,45.70
2018-04-11T14:45:09.134Z,45.60
2018-04-11T14:47:36.068Z,45.80
2018-04-11T14:50:03.690Z,45.80
2018-04-11T14:52:30.794Z,45.80
2018-04-11T14:54:57.690Z,45.80
2018-04-11T14:57:24.592Z,45.80
2018-04-11T14:59:51.536Z,45.50
2018-04-11T15:02:18.283Z,45.90
2018-04-11T15:04:48.655Z,46.30
2018-04-11T15:07:15.465Z,45.70
2018-04-11T15:09:42.363Z,46.10
2018-04-11T15:12:09.409Z,46.40
2018-04-11T15:14:36.087Z,46.50
2018-04-11T15:17:03.888Z,45.70
2018-04-11T15:19:30.881Z,46.30
2018-04-11T15:21:57.824Z,46.30
2018-04-11T15:24:24.501Z,46.40
2018-04-11T15:26:51.360Z,46.20
2018-04-11T15:29:18.830Z,46.30
2018-04-11T15:31:46.551Z,46.30
2018-04-11T15:34:13.495Z,46.10
2018-04-11T15:36:40.475Z,46.40
2018-04-11T15:39:08.054Z,46.50
2018-04-11T15:41:35.478Z,46.60
2018-04-11T15:44:02.330Z,46.50
2018-04-11T15:46:38.280Z,46.40
2018-04-11T15:49:05.236Z,46.80
2018-04-11T15:51:32.177Z,46.90
2018-04-11T15:53:59.031Z,46.90
2018-04-11T15:56:25.879Z,46.90
2018-04-11T15:58:52.844Z,46.90
2018-04-11T16:01:19.735Z,46.80
2018-04-11T16:03:46.700Z,46.70
2018-04-11T16:06:13.427Z,46.60
2018-04-11T16:08:40.326Z,46.60
2018-04-11T16:11:07.088Z,46.60
2018-04-11T16:13:33.895Z,46.40
2018-04-11T16:16:00.782Z,46.40
2018-04-11T16:18:27.731Z,46.50
2018-04-11T16:20:54.696Z,46.40
2018-04-11T16:23:21.541Z,46.50
2018-04-11T16:25:49.997Z,46.10
2018-04-11T16:28:16.795Z,46.20
2018-04-11T16:30:43.805Z,46.10
2018-04-11T16:33:10.848Z,46.30
2018-04-11T16:35:37.703Z,46.20
2018-04-11T16:38:04.768Z,46.10
2018-04-11T16:40:31.591Z,46.30
2018-04-11T16:42:58.444Z,46.30
2018-04-11T16:45:25.272Z,46.60
2018-04-11T16:47:52.252Z,46.30
2018-04-11T16:50:19.080Z,46.50
2018-04-11T16:52:45.934Z,46.40
2018-04-11T16:55:12.905Z,46.50
2018-04-11T16:57:39.918Z,47.60
2018-04-11T17:00:07.503Z,48.00
2018-04-11T17:02:34.452Z,47.90
2018-04-11T17:05:01.516Z,49.40
2018-04-11T17:07:28.356Z,49.10
2018-04-11T17:09:55.184Z,49.90
2018-04-11T17:12:22.070Z,49.70
2018-04-11T17:14:48.989Z,49.20
2018-04-11T17:17:15.830Z,49.50
2018-04-11T17:19:42.894Z,50.80
2018-04-11T17:22:28.342Z,51.00
2018-04-11T17:25:13.919Z,51.80
2018-04-11T17:27:59.172Z,50.10
2018-04-11T17:30:44.593Z,49.70
2018-04-11T17:33:11.454Z,49.60
2018-04-11T17:35:38.551Z,49.40
2018-04-11T17:38:05.367Z,49.50
2018-04-11T17:40:32.349Z,49.40
2018-04-11T17:42:59.163Z,49.70
2018-04-11T17:45:26.804Z,49.20
2018-04-11T17:47:54.367Z,49.10
2018-04-11T17:50:22.016Z,49.20
2018-04-11T17:52:49.194Z,49.20
2018-04-11T17:55:16.001Z,49.00
2018-04-11T17:57:43.019Z,51.10
2018-04-11T18:00:10.003Z,52.00
2018-04-11T18:02:36.741Z,52.10
2018-04-11T18:05:03.638Z,52.50
2018-04-11T18:07:30.487Z,52.70
2018-04-11T18:09:57.356Z,51.60
2018-04-11T18:12:24.279Z,50.10
2018-04-11T18:14:51.167Z,49.10
2018-04-11T18:17:18.656Z,47.20
2018-04-11T18:19:45.476Z,47.10
2018-04-11T18:22:13.227Z,46.00
2018-04-11T18:24:40.269Z,45.90
2018-04-11T18:27:07.103Z,46.10
2018-04-11T18:29:33.967Z,46.60
2018-04-11T18:32:00.711Z,47.00
2018-04-11T18:34:27.605Z,47.10
2018-04-11T18:36:55.235Z,47.90
2018-04-11T18:39:22.126Z,47.60
2018-04-11T18:41:48.857Z,48.40
2018-04-11T18:44:17.535Z,48.80
2018-04-11T18:46:44.349Z,48.80
2018-04-11T18:49:11.309Z,49.10
2018-04-11T18:51:38.260Z,49.20
2018-04-11T18:54:05.172Z,49.50
2018-04-11T18:56:31.945Z,49.70
2018-04-11T18:58:58.735Z,49.80
2018-04-11T19:01:26.260Z,50.00
2018-04-11T19:03:53.220Z,50.00
2018-04-11T19:06:19.987Z,50.20
2018-04-11T19:08:47.619Z,51.10
2018-04-11T19:11:14.404Z,50.60
2018-04-11T19:13:41.858Z,50.20
2018-04-11T19:16:09.327Z,51.50
2018-04-11T19:18:36.242Z,50.80
2018-04-11T19:21:03.097Z,50.70
2018-04-11T19:23:30.026Z,50.40
2018-04-11T19:25:56.851Z,50.80
2018-04-11T19:28:23.701Z,50.80
2018-04-11T19:30:50.701Z,51.30
2018-04-11T19:33:17.640Z,51.30
2018-04-11T19:35:44.468Z,51.30
2018-04-11T19:38:11.384Z,51.50
2018-04-11T19:40:39.133Z,51.60
2018-04-11T19:43:06.065Z,51.60
2018-04-11T19:45:32.969Z,51.50
2018-04-11T19:47:59.933Z,51.50
2018-04-11T19:50:26.742Z,51.70
2018-04-11T19:52:54.275Z,51.70
2018-04-11T19:55:21.218Z,51.80
2018-04-11T19:57:48.030Z,51.90
2018-04-11T20:00:15.024Z,52.00
2018-04-11T20:02:41.788Z,52.20
2018-04-11T20:14:53.950Z,52.20
2018-04-11T20:17:20.905Z,53.30
2018-04-11T20:19:47.963Z,52.80
2018-04-11T20:22:14.911Z,52.10
2018-04-11T20:24:41.715Z,51.70
2018-04-11T20:27:08.544Z,51.40
2018-04-11T20:29:36.159Z,51.10
2018-04-11T20:32:03.090Z,51.00
2018-04-11T20:34:29.980Z,51.30
2018-04-11T20:36:56.810Z,51.00
2018-04-11T20:39:23.615Z,51.00
2018-04-11T20:41:50.431Z,50.90
2018-04-11T20:44:17.459Z,50.90
2018-04-11T20:46:44.300Z,51.00
2018-04-11T20:49:11.057Z,51.00
2018-04-11T20:51:37.957Z,50.70
2018-04-11T20:54:04.863Z,50.80
2018-04-11T20:56:31.631Z,50.80
2018-04-11T20:58:59.267Z,51.40
2018-04-11T21:01:26.248Z,50.60
2018-04-11T21:03:53.116Z,50.40
2018-04-11T21:06:20.212Z,50.40
2018-04-11T21:08:46.896Z,50.50
2018-04-11T21:11:14.525Z,50.20
2018-04-11T21:13:41.903Z,50.10
2018-04-11T21:25:58.604Z,50.20
2018-04-11T21:28:25.535Z,50.80
2018-04-11T21:30:52.305Z,50.60
2018-04-11T21:33:19.174Z,50.70
2018-04-11T21:35:46.787Z,50.10
2018-04-11T21:38:13.638Z,50.00
2018-04-11T21:40:40.591Z,49.80
2018-04-11T21:43:07.547Z,49.60
2018-04-11T21:45:34.487Z,49.50
2018-04-11T21:48:01.340Z,49.50
2018-04-11T21:50:28.194Z,49.50
2018-04-11T21:52:55.583Z,49.50
2018-04-11T21:55:22.463Z,49.40
2018-04-11T21:57:49.429Z,49.50
2018-04-11T22:00:16.295Z,49.40
2018-04-11T22:02:43.148Z,49.40
2018-04-11T22:05:10.099Z,49.30
2018-04-11T22:07:37.082Z,49.30
2018-04-11T22:10:04.638Z,49.00
2018-04-11T22:12:32.325Z,49.40
2018-04-11T22:14:59.947Z,49.40
2018-04-11T22:17:26.650Z,49.20
2018-04-11T22:19:53.535Z,49.50
2018-04-11T22:22:20.303Z,49.10
2018-04-11T22:24:47.139Z,49.20
2018-04-11T22:27:13.995Z,49.10
2018-04-11T22:29:40.926Z,49.20
2018-04-11T22:32:08.592Z,49.20
2018-04-11T22:34:36.800Z,49.10
2018-04-11T22:37:03.735Z,49.30
2018-04-11T22:39:30.771Z,49.20
2018-04-11T22:41:57.618Z,49.40
2018-04-11T22:44:24.525Z,49.00
2018-04-11T22:46:52.256Z,49.20
2018-04-11T22:49:19.303Z,49.20
2018-04-11T22:51:46.239Z,49.30
2018-04-11T22:54:13.092Z,49.10
2018-04-11T22:56:40.631Z,48.80
2018-04-11T22:59:07.399Z,48.40
2018-04-11T23:01:34.255Z,48.70
2018-04-11T23:04:01.046Z,49.10
2018-04-11T23:06:28.668Z,48.90
2018-04-11T23:08:55.511Z,49.20
2018-04-11T23:11:22.311Z,49.50
2018-04-11T23:13:49.782Z,49.00
2018-04-11T23:16:16.875Z,49.00
2018-04-11T23:18:43.677Z,49.00
2018-04-11T23:21:12.932Z,49.00
2018-04-11T23:23:39.715Z,49.10
2018-04-11T23:26:07.646Z,48.90
2018-04-11T23:28:34.416Z,48.50
2018-04-11T23:31:01.236Z,48.80
2018-04-11T23:33:27.927Z,48.50
2018-04-11T23:35:55.427Z,49.10
2018-04-11T23:38:22.504Z,49.20
2018-04-11T23:40:49.293Z,49.10
2018-04-11T23:43:17.006Z,48.90
2018-04-11T23:45:43.871Z,48.80
2018-04-11T23:48:11.006Z,48.80
2018-04-11T23:50:39.599Z,48.90
2018-04-11T23:53:06.551Z,48.70
2018-04-11T23:55:33.512Z,48.80
2018-04-11T23:58:00.349Z,48.60
